• Join FlightAware (Why Join?)
  • Login
  • US Flag 
11:04PM EDT


 

Airport Tracker/Info


-or-


 

Live Flight TrackerFlight Track Log ✈ MTN7503 ✈ 24-Jun-2013 ✈ KEWN - KGSO

Flight Track Log - Related Links

Times and Time Zones

All times are in EDT time to prevent confusion due to time zone crossing. See the MTN7503 flight status page for this flight to view local times or setup timezone preferences in your user account.

Time Position Orientation Groundspeed Altitude Reporting Facility
EDT Latitude Longitude Course Direction KTS MPH feet Rate Location/Type
07:55PM 35.1028 -77.1408 309° West 171 197 3,000  Level Washington Center
07:56PM 35.1294 -77.1869 305° West 171 197 4,100 1,200 Climbing Washington Center
07:57PM 35.1558 -77.2256 310° West 166 191 5,500 1,260 Climbing Washington Center
07:58PM 35.1825 -77.2692 307° West 161 185 6,600 1,020 Climbing Washington Center
07:59PM 35.2828 -77.4156 301° West  Level FlightAware Approximate
07:59PM 35.2131 -77.3131 310° West 161 185 7,600  Level Washington Center
08:00PM 35.3139 -77.4707 309° West  Level FlightAware Approximate
08:00PM 35.2417 -77.3594 307° West 161 185 8,700  Level Washington Center
08:01PM 35.2722 -77.4061 309° West 168 193 9,700 960 Climbing Washington Center
08:02PM 35.3050 -77.4550 309° West 175 201 10,700 960 Climbing Washington Center
08:03PM 35.3333 -77.5042 305° West 175 201 11,700 900 Climbing Washington Center
08:04PM 35.3681 -77.5533 311° West 180 207 12,600 840 Climbing Washington Center
08:05PM 35.3922 -77.6100 298° West 180 207 13,400 720 Climbing Washington Center
08:06PM 35.4161 -77.6642 298° West 180 207 14,100 240 Climbing Washington Center
08:07PM 35.4422 -77.7311 296° West 193 222 14,000 -60 Descending Washington Center
08:08PM 35.4722 -77.8033 297° West 217 250 14,000  Level Washington Center
08:09PM 35.5042 -77.8781 298° West 232 267 14,000  Level Washington Center
08:10PM 35.5339 -77.9531 296° West 244 281 14,000  Level Washington Center
08:11PM 35.5639 -78.0228 298° West 244 281 14,000  Level Washington Center
08:12PM 35.5936 -78.0953 297° West 239 275 14,000  Level Washington Center
08:13PM 35.6256 -78.1678 298° West 239 275 14,000  Level Washington Center
08:14PM 35.6531 -78.2403 295° West 239 275 14,000  Level Washington Center
08:15PM 35.6850 -78.3131 298° West 239 275 14,000  Level Washington Center
08:16PM 35.7144 -78.3881 296° West 239 275 14,000  Level Washington Center
08:17PM 35.7442 -78.4608 297° West 239 275 14,000  Level Washington Center
08:18PM 35.7736 -78.5361 296° West 239 275 14,000  Level Washington Center
08:19PM 35.8011 -78.6064 296° West 239 275 14,000  Level Washington Center
08:20PM 35.8306 -78.6739 298° West 239 275 14,000  Level Washington Center
08:21PM 35.8578 -78.7469 295° West 239 275 14,000  Level Washington Center
08:22PM 35.8767 -78.8194 288° West 239 275 14,000  Level Washington Center
08:23PM 35.8808 -78.8989 274° West 228 262 14,000  Level Washington Center
08:24PM 35.8850 -78.9761 274° West 228 262 14,000 -240 Level Washington Center
08:25PM 35.8908 -79.0583 275° West 233 268 13,600 -540 Descending Washington Center
08:26PM 35.8967 -79.1458 275° West 238 274 13,000 -660 Descending Washington Center
08:28PM 35.9000 -79.2508 270° West  Level FlightAware Approximate
08:35PM 35.9994 -79.6987 302° West  Level FlightAware Approximate
08:36PM 36.0219 -79.7604 302° West  Level FlightAware Approximate
08:37PM 36.0459 -79.8210 292° West  Level FlightAware Approximate
08:38PM 36.0669 -79.8837 310° West  Level FlightAware Approximate
08:39PM 36.1000 -79.9333 310° West  Level FlightAware Approximate
08:40PM 36.1013 -79.9411 310° West  Level Estimated
08:41PM 36.1000 -79.9333 310° West  Level FlightAware Approximate
08:42PM 36.1013 -79.9411 310° West  Level Estimated
08:43PM 36.1000 -79.9333 310° West  Level FlightAware Approximate